Time;durP1;ratioP1;P1;durP2;ratioP2;P2;SDS_P1;SDS_P2;PMS_P1;PMS_P2;Temp;Humidity;BMP_temperature;BMP_pressure;BME280_temperature;BME280_humidity;BME280_pressure;Samples;Min_cycle;Max_cycle;Signal;HPM_P1;HPM_P2
2022/06/29 00:02:10;;;;;;;4.35;3.03;;;21.60;99.90;;;;;;5049267;28;20059;-70
2022/06/29 00:04:35;;;;;;;6.75;3.88;;;21.60;99.90;;;;;;5056325;28;20068;-70
2022/06/29 00:07:01;;;;;;;5.55;3.60;;;21.60;99.90;;;;;;5057765;28;20024;-70
2022/06/29 00:09:27;;;;;;;3.70;3.35;;;21.60;99.90;;;;;;5068609;28;20457;-70
2022/06/29 00:11:52;;;;;;;4.20;3.47;;;21.50;99.90;;;;;;5055733;28;20025;-70
2022/06/29 00:14:18;;;;;;;3.88;3.58;;;21.50;99.90;;;;;;5052261;28;20045;-70
2022/06/29 00:16:43;;;;;;;6.63;3.40;;;21.50;99.90;;;;;;5047812;28;20034;-70
2022/06/29 00:19:09;;;;;;;4.28;3.45;;;21.60;99.90;;;;;;5057779;28;20112;-70
2022/06/29 00:21:35;;;;;;;5.68;3.25;;;21.60;99.90;;;;;;5056922;28;20040;-70
2022/06/29 00:24:01;;;;;;;4.53;3.00;;;21.40;99.90;;;;;;5058897;28;20021;-70
2022/06/29 00:26:27;;;;;;;3.45;3.17;;;21.40;99.90;;;;;;5056829;28;20039;-69
2022/06/29 00:28:52;;;;;;;4.03;3.63;;;21.40;99.90;;;;;;5052452;28;20044;-70
2022/06/29 00:31:18;;;;;;;8.23;3.47;;;21.40;99.90;;;;;;5051366;28;20036;-70
2022/06/29 00:33:44;;;;;;;4.03;3.70;;;21.40;99.90;;;;;;5053247;28;20040;-69
2022/06/29 00:36:10;;;;;;;5.15;3.40;;;21.30;99.90;;;;;;5055682;28;20048;-69
2022/06/29 00:38:36;;;;;;;3.95;3.35;;;21.30;99.90;;;;;;5056599;28;20115;-69
2022/06/29 00:41:01;;;;;;;7.28;3.40;;;21.30;99.90;;;;;;5057006;28;20147;-69
2022/06/29 00:43:27;;;;;;;9.90;4.15;;;21.10;99.90;;;;;;5051134;28;20398;-69
2022/06/29 00:45:53;;;;;;;6.53;3.72;;;21.10;99.90;;;;;;5058888;28;20036;-69
2022/06/29 00:48:18;;;;;;;3.75;3.42;;;21.00;99.90;;;;;;5049943;28;20047;-68
2022/06/29 00:50:46;;;;;;;4.88;3.40;;;21.00;99.90;;;;;;5051353;28;20045;-69
2022/06/29 00:53:15;;;;;;;7.63;3.67;;;21.00;99.90;;;;;;5053823;28;20421;-70
2022/06/29 00:55:44;;;;;;;3.55;3.33;;;21.00;99.90;;;;;;5050160;28;20106;-70
2022/06/29 00:58:11;;;;;;;4.22;3.83;;;20.90;99.90;;;;;;5049682;28;20051;-69
2022/06/29 01:00:37;;;;;;;4.25;3.80;;;20.80;99.90;;;;;;5052220;28;20039;-70
2022/06/29 01:03:03;;;;;;;4.72;3.60;;;20.70;99.90;;;;;;5048426;28;20108;-69
2022/06/29 01:05:31;;;;;;;6.15;4.05;;;20.70;99.90;;;;;;5055249;28;20764;-70
2022/06/29 01:07:57;;;;;;;6.07;3.92;;;20.70;99.90;;;;;;5054543;28;20477;-70
2022/06/29 01:10:23;;;;;;;6.38;3.47;;;20.70;99.90;;;;;;5055578;28;20060;-70
2022/06/29 01:12:53;;;;;;;4.38;3.30;;;20.70;99.90;;;;;;5051930;28;21020;-69
2022/06/29 01:15:20;;;;;;;5.13;3.38;;;20.70;99.90;;;;;;5055058;28;20031;-69
2022/06/29 01:17:46;;;;;;;4.00;3.45;;;20.70;99.90;;;;;;5055117;28;20043;-69
2022/06/29 01:20:13;;;;;;;11.80;3.75;;;20.70;99.90;;;;;;5054231;28;20393;-68
2022/06/29 01:22:39;;;;;;;6.10;3.70;;;20.70;99.90;;;;;;5050030;28;20055;-68
2022/06/29 01:25:06;;;;;;;4.78;3.97;;;20.70;99.90;;;;;;5061158;28;20029;-69
2022/06/29 01:27:32;;;;;;;6.32;3.88;;;20.70;99.90;;;;;;5051001;28;20128;-68
2022/06/29 01:29:57;;;;;;;3.85;3.53;;;20.70;99.90;;;;;;5053308;28;20032;-70
2022/06/29 01:32:23;;;;;;;7.80;3.78;;;20.70;99.90;;;;;;5052977;28;20110;-70
2022/06/29 01:34:49;;;;;;;3.97;3.67;;;20.70;99.90;;;;;;5054644;28;20025;-70
2022/06/29 01:37:15;;;;;;;4.07;3.78;;;20.60;99.90;;;;;;5051502;28;20575;-71
2022/06/29 01:39:41;;;;;;;7.72;4.35;;;20.60;99.90;;;;;;5058634;28;20024;-70
2022/06/29 01:42:07;;;;;;;4.03;3.72;;;20.60;99.90;;;;;;5058123;28;20470;-70
2022/06/29 01:44:34;;;;;;;5.45;4.15;;;20.70;99.90;;;;;;5057532;28;20025;-70
2022/06/29 01:47:00;;;;;;;11.80;3.80;;;20.60;99.90;;;;;;5060377;28;20429;-70
2022/06/29 01:49:26;;;;;;;4.40;3.63;;;20.70;99.90;;;;;;5054924;28;20037;-69
2022/06/29 01:51:52;;;;;;;4.35;3.70;;;20.60;99.90;;;;;;5059583;28;20035;-68
2022/06/29 01:54:18;;;;;;;4.65;4.03;;;20.60;99.90;;;;;;5055615;28;20037;-69
2022/06/29 01:56:43;;;;;;;4.38;3.97;;;20.50;99.90;;;;;;5057317;28;20036;-69
2022/06/29 01:59:09;;;;;;;5.13;4.50;;;20.50;99.90;;;;;;5052417;28;21042;-68
2022/06/29 02:01:35;;;;;;;4.50;4.10;;;20.50;99.90;;;;;;5055748;28;20024;-68
2022/06/29 02:04:00;;;;;;;5.15;4.00;;;20.40;99.90;;;;;;5054643;28;20039;-69
2022/06/29 02:06:26;;;;;;;4.20;3.60;;;20.30;99.90;;;;;;5050633;28;20028;-69
2022/06/29 02:08:52;;;;;;;6.13;3.60;;;20.40;99.90;;;;;;5050235;28;20648;-70
2022/06/29 02:11:19;;;;;;;5.20;3.80;;;20.30;99.90;;;;;;5051833;28;20032;-70
2022/06/29 02:13:46;;;;;;;8.77;3.85;;;20.30;99.90;;;;;;5054031;28;20157;-69
2022/06/29 02:16:12;;;;;;;7.15;3.83;;;20.30;99.90;;;;;;5050910;28;20451;-70
2022/06/29 02:18:37;;;;;;;4.38;3.97;;;20.30;99.90;;;;;;5053613;28;20045;-69
2022/06/29 02:21:03;;;;;;;4.20;3.78;;;20.20;99.90;;;;;;5059218;28;20032;-70
2022/06/29 02:23:29;;;;;;;6.20;4.07;;;20.30;99.90;;;;;;5052546;28;20802;-70
2022/06/29 02:25:55;;;;;;;8.40;4.45;;;20.20;99.90;;;;;;5052966;28;20044;-70
2022/06/29 02:28:20;;;;;;;10.30;3.60;;;20.10;99.90;;;;;;5052915;28;20032;-69
2022/06/29 02:36:15;;;;;;;10.40;3.83;;;20.00;99.90;;;;;;5052773;28;20286;-68
2022/06/29 02:38:40;;;;;;;8.18;4.13;;;20.00;99.90;;;;;;5048072;28;20473;-68
2022/06/29 02:41:06;;;;;;;5.68;4.20;;;20.00;99.90;;;;;;5046900;28;20544;-69
2022/06/29 02:43:32;;;;;;;5.25;4.10;;;19.90;99.90;;;;;;5049769;28;20314;-69
2022/06/29 02:45:57;;;;;;;5.68;4.10;;;19.90;99.90;;;;;;5051042;28;20100;-68
2022/06/29 02:48:23;;;;;;;5.13;4.32;;;20.00;99.90;;;;;;5047596;28;20203;-69
2022/06/29 02:50:48;;;;;;;5.07;4.15;;;20.00;99.90;;;;;;5052510;28;20938;-69
2022/06/29 02:53:14;;;;;;;5.28;4.32;;;20.10;99.90;;;;;;5050691;28;20120;-69
2022/06/29 02:55:40;;;;;;;6.20;4.20;;;20.10;99.90;;;;;;5052646;28;20032;-69
2022/06/29 02:58:06;;;;;;;6.85;4.25;;;20.10;99.90;;;;;;5046717;28;20948;-69
2022/06/29 03:00:31;;;;;;;4.60;4.15;;;20.10;99.90;;;;;;5043032;28;20037;-69
2022/06/29 03:02:57;;;;;;;4.75;4.22;;;20.20;99.90;;;;;;5050740;28;20418;-69
2022/06/29 03:05:22;;;;;;;14.23;4.45;;;20.20;99.90;;;;;;5048741;28;20089;-68
2022/06/29 03:07:48;;;;;;;10.07;4.80;;;20.20;99.90;;;;;;5052871;28;20041;-69
2022/06/29 03:10:14;;;;;;;4.32;3.88;;;20.10;99.90;;;;;;5047601;28;20033;-70
2022/06/29 03:12:39;;;;;;;4.95;3.75;;;20.10;99.90;;;;;;5044688;28;20102;-70
2022/06/29 03:15:06;;;;;;;28.20;5.68;;;20.10;99.90;;;;;;5050284;28;20048;-70
2022/06/29 03:17:31;;;;;;;6.32;3.85;;;20.10;99.90;;;;;;5050827;28;20040;-70
2022/06/29 03:19:58;;;;;;;7.15;3.90;;;20.10;99.90;;;;;;5052114;28;20026;-70
2022/06/29 03:22:24;;;;;;;4.10;3.70;;;20.10;99.90;;;;;;5041012;28;20060;-70
2022/06/29 03:24:50;;;;;;;10.00;4.30;;;20.00;99.90;;;;;;5055207;28;20086;-68
2022/06/29 03:27:15;;;;;;;4.53;4.13;;;20.00;99.90;;;;;;5054881;28;20481;-68
2022/06/29 03:29:41;;;;;;;7.13;4.55;;;20.00;99.90;;;;;;5059110;28;20512;-68
2022/06/29 03:32:08;;;;;;;6.55;4.18;;;20.10;99.90;;;;;;5051030;28;20033;-68
2022/06/29 03:34:33;;;;;;;6.00;4.50;;;20.10;99.90;;;;;;5055203;28;20043;-68
2022/06/29 03:36:59;;;;;;;6.28;4.00;;;20.20;99.90;;;;;;5060373;28;20025;-68
2022/06/29 03:39:25;;;;;;;7.50;4.63;;;20.20;99.90;;;;;;5052453;28;20040;-68
2022/06/29 03:41:50;;;;;;;8.77;4.30;;;20.30;99.90;;;;;;5057847;28;20043;-68
2022/06/29 03:44:16;;;;;;;8.80;4.22;;;20.30;99.90;;;;;;5058434;28;20699;-69
2022/06/29 03:46:42;;;;;;;10.85;4.68;;;20.20;99.90;;;;;;5059311;28;20066;-70
2022/06/29 03:49:08;;;;;;;7.10;4.47;;;20.20;99.90;;;;;;5051118;28;20564;-70
2022/06/29 03:51:33;;;;;;;7.57;4.15;;;20.20;99.90;;;;;;5059223;28;20594;-70
2022/06/29 03:53:59;;;;;;;5.78;4.50;;;20.30;99.90;;;;;;5055158;28;20107;-69
2022/06/29 03:56:24;;;;;;;5.68;4.10;;;20.30;99.90;;;;;;5054713;28;20448;-69
2022/06/29 03:58:50;;;;;;;13.48;5.40;;;20.40;99.90;;;;;;5056756;28;20415;-70
2022/06/29 04:01:16;;;;;;;7.38;4.05;;;20.50;99.90;;;;;;5051532;28;20025;-69
2022/06/29 04:03:41;;;;;;;7.63;4.60;;;20.50;99.90;;;;;;5057718;28;20456;-68
2022/06/29 04:06:08;;;;;;;8.20;4.78;;;20.60;99.90;;;;;;5057968;28;20090;-68
2022/06/29 04:08:35;;;;;;;19.05;5.30;;;20.60;99.90;;;;;;5052726;28;20043;-68
2022/06/29 04:11:01;;;;;;;26.63;5.85;;;20.60;99.90;;;;;;5053172;28;20031;-68
2022/06/29 04:13:27;;;;;;;4.90;4.45;;;20.70;99.90;;;;;;5046819;28;20036;-68
2022/06/29 04:15:52;;;;;;;6.55;5.32;;;20.70;99.90;;;;;;5054976;28;20027;-68
2022/06/29 04:18:18;;;;;;;9.13;5.05;;;20.70;99.90;;;;;;5045564;28;20085;-68
2022/06/29 04:23:28;;;;;;;9.32;4.40;;;20.70;99.90;;;;;;5052795;28;20058;-69
2022/06/29 04:25:53;;;;;;;6.60;4.90;;;20.70;99.90;;;;;;5057953;28;20024;-69
2022/06/29 04:28:19;;;;;;;5.45;4.45;;;20.70;99.90;;;;;;5050017;28;20041;-69
2022/06/29 04:30:44;;;;;;;6.35;4.90;;;20.80;99.90;;;;;;5051693;28;20028;-69
2022/06/29 04:33:10;;;;;;;6.82;4.50;;;20.90;99.90;;;;;;5050464;28;20060;-69
2022/06/29 04:35:36;;;;;;;6.63;4.78;;;21.00;99.90;;;;;;5056789;28;20033;-70
2022/06/29 04:38:02;;;;;;;5.75;4.32;;;21.00;99.90;;;;;;5054120;28;20478;-66
2022/06/29 04:40:27;;;;;;;6.05;4.28;;;21.10;99.90;;;;;;5054689;28;20093;-66
2022/06/29 04:42:53;;;;;;;6.65;4.50;;;21.10;99.90;;;;;;5056287;28;20044;-69
2022/06/29 04:48:04;;;;;;;5.13;4.60;;;21.20;99.90;;;;;;5050783;28;20071;-68
2022/06/29 04:50:30;;;;;;;4.90;4.30;;;21.30;99.90;;;;;;5044148;28;20029;-68
2022/06/29 04:52:56;;;;;;;6.32;4.95;;;21.40;99.90;;;;;;5048091;28;20067;-68
2022/06/29 04:55:23;;;;;;;10.57;4.82;;;21.50;99.90;;;;;;5051857;28;20029;-69
2022/06/29 04:57:49;;;;;;;11.25;4.70;;;21.60;99.90;;;;;;5054008;28;20429;-69
2022/06/29 05:00:15;;;;;;;5.22;4.72;;;21.60;99.90;;;;;;5055278;28;20079;-66
2022/06/29 05:02:41;;;;;;;7.30;4.95;;;21.70;99.90;;;;;;5055167;28;20532;-66
2022/06/29 05:05:07;;;;;;;5.45;4.40;;;21.80;99.90;;;;;;5060078;28;20056;-67
2022/06/29 05:07:33;;;;;;;6.43;4.28;;;21.80;99.90;;;;;;5052205;28;24350;-67
2022/06/29 05:09:59;;;;;;;5.88;4.70;;;21.90;99.90;;;;;;5054262;28;20039;-66
2022/06/29 05:12:25;;;;;;;5.35;4.53;;;22.00;99.90;;;;;;5058582;28;20021;-68
2022/06/29 05:14:51;;;;;;;7.00;4.60;;;22.10;99.90;;;;;;5054740;28;20029;-68
2022/06/29 05:17:16;;;;;;;5.82;4.63;;;22.10;99.90;;;;;;5056295;28;20028;-68
2022/06/29 05:19:42;;;;;;;8.85;4.60;;;22.20;99.90;;;;;;5050441;28;20032;-71
2022/06/29 06:01:20;;;;;;;5.00;3.85;;;23.60;99.90;;;;;;5075560;27;20066;-67
2022/06/29 06:03:45;;;;;;;7.32;3.80;;;23.80;99.90;;;;;;5076778;28;20076;-67
2022/06/29 06:06:12;;;;;;;6.88;4.00;;;23.80;99.90;;;;;;5072671;28;20782;-68
2022/06/29 06:08:38;;;;;;;4.30;4.00;;;23.90;99.90;;;;;;5071550;28;21113;-68
2022/06/29 06:11:03;;;;;;;14.50;3.67;;;24.00;99.90;;;;;;5081132;28;20036;-68
2022/06/29 06:13:29;;;;;;;4.72;3.20;;;24.10;99.90;;;;;;5076295;28;20038;-67
2022/06/29 06:15:54;;;;;;;3.65;3.22;;;24.20;99.90;;;;;;5076334;28;20051;-66
2022/06/29 06:18:20;;;;;;;3.50;3.20;;;24.30;99.90;;;;;;5072746;28;21120;-69
2022/06/29 06:20:46;;;;;;;4.32;3.50;;;24.40;99.90;;;;;;5078314;28;20070;-69
2022/06/29 06:23:12;;;;;;;4.60;3.40;;;24.50;99.90;;;;;;5076871;28;20147;-69
2022/06/29 06:25:37;;;;;;;18.02;3.95;;;24.50;99.90;;;;;;5079479;28;20530;-69
2022/06/29 06:28:05;;;;;;;10.25;3.70;;;24.60;99.90;;;;;;5081301;28;20036;-70
2022/06/29 11:47:35;;;;;;;3.20;1.98;;;32.10;59.70;;;;;;5134688;27;20179;-78
2022/06/29 11:50:12;;;;;;;4.82;2.35;;;32.20;58.40;;;;;;5135544;27;20022;-77
2022/06/29 11:52:37;;;;;;;4.75;2.10;;;32.10;59.70;;;;;;5136398;27;20027;-76
2022/06/29 11:55:03;;;;;;;2.70;2.30;;;32.10;61.30;;;;;;5125791;27;20034;-67
2022/06/29 11:57:29;;;;;;;5.72;2.17;;;32.20;61.00;;;;;;5128931;27;20051;-70
2022/06/29 12:00:07;;;;;;;5.05;1.90;;;32.10;60.30;;;;;;5132368;27;20102;-71
2022/06/29 12:02:34;;;;;;;21.80;2.60;;;32.10;63.60;;;;;;5132005;27;20126;-68
2022/06/29 12:05:01;;;;;;;6.85;2.60;;;32.10;58.30;;;;;;5127932;27;20037;-67
2022/06/29 12:07:28;;;;;;;3.10;2.00;;;32.10;58.70;;;;;;5134237;27;20032;-69
2022/06/29 12:09:55;;;;;;;3.00;1.85;;;32.20;56.20;;;;;;5132346;27;20012;-67
2022/06/29 12:12:21;;;;;;;3.67;1.98;;;32.20;56.00;;;;;;5133223;27;20122;-69
2022/06/29 12:14:47;;;;;;;2.38;2.00;;;32.20;56.60;;;;;;5130035;27;20781;-70
2022/06/29 12:17:14;;;;;;;4.82;1.90;;;32.20;56.00;;;;;;5128485;27;20034;-70
2022/06/29 12:19:40;;;;;;;1.90;1.80;;;32.20;57.10;;;;;;5129720;27;20058;-70
2022/06/29 12:22:06;;;;;;;2.88;2.08;;;32.10;57.30;;;;;;5127591;27;20077;-70
2022/06/29 12:24:32;;;;;;;2.95;2.03;;;32.30;56.80;;;;;;5130911;27;20027;-73
2022/06/29 12:26:58;;;;;;;9.40;1.90;;;32.30;56.60;;;;;;5116324;27;20127;-73
2022/06/29 12:29:24;;;;;;;5.60;2.53;;;32.30;55.50;;;;;;5130101;27;20026;-72
2022/06/29 12:31:50;;;;;;;3.53;2.20;;;32.20;57.10;;;;;;5123449;27;20030;-72
2022/06/29 12:34:16;;;;;;;2.85;1.90;;;32.10;59.50;;;;;;5111610;27;20070;-69
2022/06/29 12:36:42;;;;;;;2.63;1.60;;;32.20;59.30;;;;;;5108891;27;20431;-69
2022/06/29 12:39:09;;;;;;;2.40;1.80;;;32.30;54.70;;;;;;5104043;27;20031;-67
2022/06/29 12:41:35;;;;;;;4.05;2.30;;;32.40;55.90;;;;;;5106472;27;20159;-68
2022/06/29 12:44:02;;;;;;;2.75;2.13;;;32.50;55.70;;;;;;5108374;27;20023;-66
2022/06/29 12:46:29;;;;;;;5.22;2.13;;;32.60;57.10;;;;;;5104112;27;20051;-68
2022/06/29 12:48:55;;;;;;;2.15;1.73;;;32.60;56.00;;;;;;5075631;28;20056;-69
2022/06/29 12:51:21;;;;;;;3.53;1.90;;;32.60;55.70;;;;;;5079622;28;20143;-72
2022/06/29 12:53:47;;;;;;;2.85;1.83;;;32.60;54.40;;;;;;5094475;27;20495;-69
2022/06/29 12:56:13;;;;;;;3.78;2.08;;;32.50;53.30;;;;;;5094283;27;20122;-68
2022/06/29 12:58:39;;;;;;;2.90;1.95;;;32.50;52.90;;;;;;5090471;27;20168;-69
2022/06/29 13:01:05;;;;;;;2.10;1.80;;;32.40;54.00;;;;;;5069024;28;20032;-69
2022/06/29 13:03:31;;;;;;;5.53;2.00;;;32.50;52.70;;;;;;5092733;27;20032;-66
2022/06/29 13:05:56;;;;;;;5.20;1.77;;;32.60;52.60;;;;;;5092727;28;20039;-66
2022/06/29 13:08:22;;;;;;;3.47;2.00;;;32.60;51.50;;;;;;5086281;27;20024;-66
2022/06/29 13:10:48;;;;;;;5.45;2.00;;;32.60;51.30;;;;;;5093552;27;20085;-68
2022/06/29 13:13:13;;;;;;;2.17;1.52;;;32.60;52.10;;;;;;5091469;27;20032;-73
2022/06/29 13:15:39;;;;;;;5.50;2.05;;;32.60;52.50;;;;;;5097123;28;20057;-73
2022/06/29 13:18:05;;;;;;;2.38;2.05;;;32.60;52.60;;;;;;5098796;27;20471;-73
2022/06/29 13:20:30;;;;;;;3.90;1.70;;;32.70;52.20;;;;;;5094177;27;20054;-73
2022/06/29 13:22:56;;;;;;;4.95;1.77;;;32.70;52.40;;;;;;5080013;28;20035;-74
2022/06/29 13:25:22;;;;;;;2.92;1.90;;;32.70;53.80;;;;;;5090870;27;20055;-76
2022/06/29 13:27:48;;;;;;;3.83;2.00;;;32.70;51.90;;;;;;5087590;27;20111;-72
2022/06/29 13:30:14;;;;;;;3.13;2.13;;;32.70;51.90;;;;;;5094504;27;20058;-67
2022/06/29 13:32:39;;;;;;;3.38;2.40;;;32.70;53.30;;;;;;5089497;28;20051;-72
2022/06/29 13:35:09;;;;;;;8.25;2.10;;;32.70;53.50;;;;;;5077885;27;20035;-73
2022/06/29 13:37:34;;;;;;;2.40;1.98;;;32.70;53.20;;;;;;5096916;27;20027;-73
2022/06/29 13:40:00;;;;;;;4.10;2.17;;;32.70;51.50;;;;;;5098789;27;20035;-73
2022/06/29 13:42:25;;;;;;;8.63;2.10;;;32.70;51.80;;;;;;5085160;27;20077;-73
2022/06/29 13:44:51;;;;;;;3.40;1.77;;;32.70;52.90;;;;;;5089760;28;20058;-74
2022/06/29 13:47:17;;;;;;;2.60;2.20;;;32.70;53.10;;;;;;5088565;27;20105;-75
2022/06/29 13:49:42;;;;;;;5.22;1.90;;;32.70;53.10;;;;;;5085645;27;20052;-68
2022/06/29 13:52:08;;;;;;;8.02;2.38;;;32.80;52.20;;;;;;5085904;27;20032;-68
2022/06/29 13:54:35;;;;;;;7.68;2.30;;;32.80;52.40;;;;;;5089815;27;20020;-68
2022/06/29 13:57:01;;;;;;;5.88;1.88;;;32.80;51.20;;;;;;5080749;27;20325;-66
2022/06/29 13:59:27;;;;;;;2.15;2.00;;;32.70;52.80;;;;;;5083405;28;20027;-67
2022/06/29 14:01:53;;;;;;;2.22;1.98;;;32.80;52.20;;;;;;5090855;28;20035;-66
2022/06/29 14:04:19;;;;;;;2.65;2.20;;;32.70;52.60;;;;;;5092446;27;20039;-66
2022/06/29 14:06:45;;;;;;;2.28;1.80;;;32.70;53.50;;;;;;5091091;27;20039;-67
2022/06/29 14:09:11;;;;;;;2.72;2.28;;;32.70;53.00;;;;;;5085531;28;20024;-73
2022/06/29 14:11:37;;;;;;;5.43;2.03;;;32.80;53.70;;;;;;5095606;27;20376;-73
2022/06/29 14:14:04;;;;;;;2.28;1.80;;;32.80;52.70;;;;;;5094486;27;20081;-70
2022/06/29 14:16:30;;;;;;;3.00;1.90;;;32.80;52.50;;;;;;5088886;27;20031;-74
2022/06/29 14:18:55;;;;;;;3.03;2.00;;;32.80;52.90;;;;;;5092666;27;20451;-73
2022/06/29 14:21:21;;;;;;;4.65;1.60;;;32.80;53.70;;;;;;5090664;27;20828;-73
2022/06/29 14:23:48;;;;;;;5.38;2.00;;;32.90;53.40;;;;;;5089436;27;20038;-72
2022/06/29 14:26:14;;;;;;;4.22;1.98;;;32.90;53.20;;;;;;5090513;27;20515;-74
2022/06/29 14:28:40;;;;;;;4.72;2.05;;;32.90;53.10;;;;;;5086829;28;20509;-65
2022/06/29 14:31:06;;;;;;;8.77;2.28;;;32.80;51.70;;;;;;5087116;27;20322;-64
2022/06/29 14:33:31;;;;;;;5.43;1.95;;;32.70;52.90;;;;;;5090494;27;20067;-64
2022/06/29 14:35:57;;;;;;;3.33;2.08;;;32.70;52.10;;;;;;5078004;27;20035;-62
2022/06/29 14:38:23;;;;;;;4.00;1.90;;;32.70;51.60;;;;;;5085956;27;22119;-65
2022/06/29 14:40:49;;;;;;;7.82;1.90;;;32.70;51.40;;;;;;5078549;27;20396;-64
2022/06/29 14:43:15;;;;;;;3.42;1.83;;;32.60;51.50;;;;;;5089243;27;20060;-64
2022/06/29 14:45:42;;;;;;;3.70;2.20;;;32.60;51.80;;;;;;5094318;27;20058;-73
2022/06/29 14:48:08;;;;;;;2.75;1.70;;;32.60;50.60;;;;;;5090431;27;20035;-65
2022/06/29 14:50:34;;;;;;;1.90;1.80;;;32.70;51.70;;;;;;5090241;27;20049;-65
2022/06/29 14:53:01;;;;;;;3.72;1.85;;;32.60;52.30;;;;;;5085930;28;20472;-63
2022/06/29 14:55:26;;;;;;;5.93;1.70;;;32.60;51.30;;;;;;5090968;27;20079;-62
2022/06/29 14:57:52;;;;;;;5.75;1.88;;;32.50;51.20;;;;;;5087211;28;20028;-61
2022/06/29 15:00:18;;;;;;;2.70;2.20;;;32.40;50.50;;;;;;5087276;27;20106;-62
2022/06/29 15:02:43;;;;;;;3.38;2.22;;;32.40;51.20;;;;;;5087532;27;20035;-63
2022/06/29 15:05:09;;;;;;;3.42;1.70;;;32.40;51.30;;;;;;5094266;27;20048;-63
2022/06/29 15:07:35;;;;;;;5.22;1.98;;;32.40;51.00;;;;;;5089160;28;20058;-73
2022/06/29 15:10:01;;;;;;;4.03;1.92;;;32.40;50.70;;;;;;5089437;27;20115;-73
2022/06/29 15:12:26;;;;;;;4.43;1.70;;;32.40;50.70;;;;;;5088982;27;20032;-73
2022/06/29 15:14:52;;;;;;;6.50;2.25;;;32.40;50.30;;;;;;5093281;27;20095;-74
2022/06/29 15:17:18;;;;;;;3.47;2.17;;;32.50;51.70;;;;;;5076608;28;20334;-73
2022/06/29 15:19:43;;;;;;;6.22;2.10;;;32.40;52.00;;;;;;5064710;28;20028;-73
2022/06/29 15:22:09;;;;;;;2.35;1.70;;;32.40;52.10;;;;;;5070651;28;20143;-72
2022/06/29 15:24:35;;;;;;;4.78;1.70;;;32.50;51.60;;;;;;5084719;28;20020;-71
2022/06/29 15:27:01;;;;;;;4.95;1.92;;;32.50;51.80;;;;;;5061092;28;20371;-73
2022/06/29 15:29:26;;;;;;;11.02;2.42;;;32.40;51.30;;;;;;5090160;27;20081;-75
2022/06/29 15:31:57;;;;;;;1.88;1.60;;;32.40;52.00;;;;;;5081247;28;20787;-73
2022/06/29 15:39:55;;;;;;;3.65;1.70;;;32.40;50.70;;;;;;5088602;28;20042;-74
2022/06/29 15:42:20;;;;;;;5.05;2.30;;;32.30;51.40;;;;;;5069424;28;20017;-75
2022/06/29 15:44:46;;;;;;;4.72;1.85;;;32.30;51.50;;;;;;5085368;28;20028;-64
2022/06/29 15:47:12;;;;;;;2.63;1.52;;;32.20;51.20;;;;;;5080853;28;20107;-62
2022/06/29 15:49:38;;;;;;;3.33;1.90;;;32.20;51.30;;;;;;5091886;28;20051;-61
2022/06/29 15:52:04;;;;;;;4.45;1.73;;;32.10;52.80;;;;;;5088506;28;20121;-64
2022/06/29 15:57:14;;;;;;;2.22;1.98;;;32.10;51.80;;;;;;5088860;28;20039;-65
2022/06/29 15:59:40;;;;;;;2.60;1.88;;;32.20;51.90;;;;;;5092355;28;20023;-65
2022/06/29 16:02:06;;;;;;;3.88;1.92;;;32.20;51.70;;;;;;5082807;28;20385;-65
2022/06/29 16:04:32;;;;;;;3.30;2.08;;;32.20;52.40;;;;;;5082703;28;20429;-64
2022/06/29 16:06:57;;;;;;;3.28;2.15;;;32.20;51.70;;;;;;5082786;28;20120;-65
2022/06/29 16:09:23;;;;;;;4.72;1.80;;;32.20;52.10;;;;;;5079873;28;21209;-65
2022/06/29 16:12:07;;;;;;;2.10;1.98;;;32.10;51.10;;;;;;5081116;28;20593;-63
2022/06/29 16:14:40;;;;;;;2.05;1.77;;;32.10;50.90;;;;;;5083165;28;20034;-62
2022/06/29 16:17:07;;;;;;;4.57;2.17;;;32.10;50.80;;;;;;5079914;28;20055;-63
2022/06/29 16:19:33;;;;;;;1.80;1.70;;;32.10;51.00;;;;;;5082249;28;20508;-70
2022/06/29 16:21:59;;;;;;;2.13;1.83;;;32.00;51.00;;;;;;5079046;28;20107;-72
2022/06/29 16:24:24;;;;;;;1.88;1.52;;;32.00;50.40;;;;;;5086034;27;20488;-63
2022/06/29 16:26:50;;;;;;;3.20;2.00;;;32.00;50.00;;;;;;5079604;27;20062;-63
2022/06/29 16:29:16;;;;;;;3.55;2.00;;;32.00;51.00;;;;;;5084534;27;20421;-65
2022/06/29 16:31:42;;;;;;;3.97;2.10;;;32.00;50.30;;;;;;5084199;27;20799;-65
2022/06/29 16:34:07;;;;;;;4.18;2.05;;;32.00;50.30;;;;;;5085228;27;20914;-66
2022/06/29 16:36:35;;;;;;;5.05;2.05;;;32.00;50.10;;;;;;5085383;27;21285;-66
2022/06/29 16:39:02;;;;;;;2.88;1.70;;;32.00;50.90;;;;;;5085027;27;20110;-78
2022/06/29 16:41:28;;;;;;;7.28;2.00;;;32.00;50.40;;;;;;5085724;27;20111;-65
2022/06/29 16:43:53;;;;;;;1.85;1.60;;;32.00;51.50;;;;;;5086048;27;20024;-67
2022/06/29 16:46:19;;;;;;;4.63;1.80;;;31.90;51.80;;;;;;5082983;27;20103;-67
2022/06/29 16:48:45;;;;;;;4.22;1.80;;;31.90;50.90;;;;;;5083443;27;20525;-66
2022/06/29 16:51:10;;;;;;;3.65;1.63;;;31.80;49.70;;;;;;5088489;27;20020;-66
2022/06/29 16:53:36;;;;;;;3.70;2.33;;;31.80;50.60;;;;;;5087315;28;20030;-66
2022/06/29 16:56:03;;;;;;;2.63;1.70;;;31.80;51.10;;;;;;5095822;27;20031;-67
2022/06/29 16:58:28;;;;;;;4.70;1.70;;;31.80;51.60;;;;;;5095342;27;20443;-79
2022/06/29 17:00:54;;;;;;;3.30;1.88;;;31.70;51.10;;;;;;5094857;28;20039;-66
2022/06/29 17:03:20;;;;;;;9.57;2.10;;;31.70;51.00;;;;;;5093112;27;20040;-65
2022/06/29 17:05:45;;;;;;;4.88;1.73;;;31.60;51.00;;;;;;5092066;27;20027;-66
2022/06/29 17:08:11;;;;;;;10.55;2.10;;;31.60;51.40;;;;;;5072043;27;20089;-66
2022/06/29 17:10:36;;;;;;;6.10;2.17;;;31.60;51.30;;;;;;5100311;27;20059;-65
2022/06/29 17:13:02;;;;;;;9.18;1.88;;;31.50;50.80;;;;;;5091993;27;20402;-65
2022/06/29 17:15:28;;;;;;;7.30;1.73;;;31.50;51.40;;;;;;5078763;28;20040;-65
2022/06/29 17:17:53;;;;;;;4.93;1.95;;;31.50;51.20;;;;;;5094006;27;20084;-65
2022/06/29 17:20:19;;;;;;;6.43;2.03;;;31.40;50.90;;;;;;5076818;28;20031;-76
2022/06/29 17:22:49;;;;;;;6.22;1.70;;;31.40;51.00;;;;;;5095522;27;20031;-76
2022/06/29 17:25:15;;;;;;;8.30;1.80;;;31.40;50.60;;;;;;5089927;27;20040;-76
2022/06/29 17:27:41;;;;;;;5.35;1.95;;;31.30;51.10;;;;;;5092791;27;20046;-75
2022/06/29 17:30:08;;;;;;;5.50;1.85;;;31.30;51.40;;;;;;5088962;27;20028;-75
2022/06/29 17:32:34;;;;;;;2.92;2.35;;;31.30;51.40;;;;;;5096268;27;20027;-76
2022/06/29 17:34:59;;;;;;;7.63;1.90;;;31.20;51.70;;;;;;5090826;27;20043;-76
2022/06/29 17:37:25;;;;;;;5.63;1.98;;;31.20;51.70;;;;;;5098827;27;20064;-76
2022/06/29 17:39:51;;;;;;;2.42;1.58;;;31.10;52.10;;;;;;5092671;27;21380;-65
2022/06/29 17:42:17;;;;;;;9.93;2.30;;;31.00;51.70;;;;;;5092026;27;20039;-66
2022/06/29 17:44:43;;;;;;;2.40;1.50;;;31.00;51.90;;;;;;5089492;27;20040;-66
2022/06/29 17:47:09;;;;;;;4.82;1.95;;;31.00;51.90;;;;;;5092236;27;20159;-66
2022/06/29 17:49:35;;;;;;;6.70;2.03;;;30.90;52.00;;;;;;5084405;27;20468;-66
2022/06/29 17:52:03;;;;;;;5.63;1.65;;;30.90;52.40;;;;;;5099014;27;20041;-66
2022/06/29 17:54:32;;;;;;;3.60;1.70;;;30.80;52.50;;;;;;5088694;27;20077;-66
2022/06/29 17:56:57;;;;;;;6.15;2.38;;;30.70;52.50;;;;;;5083072;27;20034;-66
2022/06/29 17:59:25;;;;;;;6.47;1.98;;;30.60;52.30;;;;;;5094991;27;20028;-76
2022/06/29 18:01:52;;;;;;;4.90;2.00;;;30.60;52.40;;;;;;5092492;27;20031;-77
2022/06/29 18:04:18;;;;;;;9.05;1.60;;;30.60;52.90;;;;;;5093176;27;20695;-77
2022/06/29 18:06:43;;;;;;;7.35;1.98;;;30.50;53.50;;;;;;5094104;27;20050;-77
2022/06/29 18:09:09;;;;;;;3.30;1.92;;;30.40;55.40;;;;;;5091020;27;20112;-76
2022/06/29 18:11:35;;;;;;;12.23;1.98;;;30.40;59.70;;;;;;5097684;27;20088;-76
2022/06/29 18:14:04;;;;;;;8.23;2.00;;;30.30;62.90;;;;;;5094682;27;20042;-75
2022/06/29 18:16:31;;;;;;;9.55;2.10;;;30.10;66.00;;;;;;5092466;28;20045;-76
2022/06/29 18:18:58;;;;;;;9.85;2.05;;;29.90;68.20;;;;;;5091930;27;20031;-67
2022/06/29 18:21:24;;;;;;;6.43;2.55;;;29.70;71.70;;;;;;5091403;27;20185;-67
2022/06/29 18:23:49;;;;;;;47.58;8.55;;;29.40;74.30;;;;;;5092782;27;21552;-66
2022/06/29 18:26:15;;;;;;;9.82;4.38;;;29.20;73.90;;;;;;5093833;27;20032;-66
2022/06/29 18:28:41;;;;;;;11.15;3.25;;;29.00;74.20;;;;;;5092586;27;20023;-66
2022/06/29 18:31:06;;;;;;;15.25;2.58;;;28.80;76.30;;;;;;5094078;27;20028;-66
2022/06/29 18:33:32;;;;;;;2.75;1.90;;;28.60;79.00;;;;;;5094507;27;20067;-67
2022/06/29 18:36:00;;;;;;;7.63;2.25;;;28.40;78.90;;;;;;5089090;27;20039;-75
2022/06/29 18:38:26;;;;;;;4.07;2.00;;;28.20;80.90;;;;;;5087113;27;20066;-74
2022/06/29 18:40:52;;;;;;;2.53;2.33;;;28.10;82.00;;;;;;5094136;27;20047;-75
2022/06/29 18:43:17;;;;;;;5.25;2.40;;;28.00;82.80;;;;;;5087121;27;20210;-76
2022/06/29 18:45:44;;;;;;;3.50;2.30;;;27.90;83.20;;;;;;5087665;28;20454;-76
2022/06/29 18:48:10;;;;;;;8.10;2.60;;;27.80;84.10;;;;;;5086632;28;20096;-76
2022/06/29 18:50:36;;;;;;;8.52;1.98;;;27.70;84.50;;;;;;5095407;27;20031;-76
2022/06/29 18:53:02;;;;;;;10.35;2.30;;;27.50;85.20;;;;;;5092074;27;20032;-75
2022/06/29 18:55:27;;;;;;;25.30;3.40;;;27.40;86.50;;;;;;5095443;27;20532;-66